sensor_id;sensor_type;location;lat;lon;timestamp;P1;durP1;ratioP1;P2;durP2;ratioP2
1382;SDS011;685;47.196;11.880;2022-09-09T00:01:12;1.20;;;0.70;;
1382;SDS011;685;47.196;11.880;2022-09-09T00:03:52;1.30;;;0.60;;
1382;SDS011;685;47.196;11.880;2022-09-09T00:06:24;1.50;;;0.90;;
1382;SDS011;685;47.196;11.880;2022-09-09T00:09:00;2.10;;;0.60;;
1382;SDS011;685;47.196;11.880;2022-09-09T00:11:32;1.23;;;0.50;;
1382;SDS011;685;47.196;11.880;2022-09-09T00:14:07;1.33;;;0.80;;
1382;SDS011;685;47.196;11.880;2022-09-09T00:16:39;1.73;;;1.17;;
1382;SDS011;685;47.196;11.880;2022-09-09T00:19:15;4.10;;;0.80;;
1382;SDS011;685;47.196;11.880;2022-09-09T00:21:50;2.60;;;1.00;;
1382;SDS011;685;47.196;11.880;2022-09-09T00:24:27;2.53;;;0.90;;
1382;SDS011;685;47.196;11.880;2022-09-09T00:27:02;1.63;;;0.80;;
1382;SDS011;685;47.196;11.880;2022-09-09T00:29:33;3.70;;;1.23;;
1382;SDS011;685;47.196;11.880;2022-09-09T00:32:09;1.53;;;0.90;;
1382;SDS011;685;47.196;11.880;2022-09-09T00:34:39;1.77;;;0.70;;
1382;SDS011;685;47.196;11.880;2022-09-09T00:37:13;2.23;;;0.93;;
1382;SDS011;685;47.196;11.880;2022-09-09T00:39:42;1.83;;;0.80;;
1382;SDS011;685;47.196;11.880;2022-09-09T00:42:13;2.30;;;1.00;;
1382;SDS011;685;47.196;11.880;2022-09-09T00:44:53;1.47;;;0.80;;
1382;SDS011;685;47.196;11.880;2022-09-09T00:47:32;2.33;;;0.70;;
1382;SDS011;685;47.196;11.880;2022-09-09T00:53:00;2.60;;;1.00;;
1382;SDS011;685;47.196;11.880;2022-09-09T00:55:41;4.00;;;1.00;;
1382;SDS011;685;47.196;11.880;2022-09-09T00:58:14;1.07;;;0.60;;
1382;SDS011;685;47.196;11.880;2022-09-09T01:00:42;1.80;;;0.80;;
1382;SDS011;685;47.196;11.880;2022-09-09T01:03:14;1.20;;;0.90;;
1382;SDS011;685;47.196;11.880;2022-09-09T01:05:52;2.78;;;1.00;;
1382;SDS011;685;47.196;11.880;2022-09-09T01:11:22;1.43;;;0.97;;
1382;SDS011;685;47.196;11.880;2022-09-09T01:13:52;2.97;;;0.80;;
1382;SDS011;685;47.196;11.880;2022-09-09T01:16:25;1.40;;;0.80;;
1382;SDS011;685;47.196;11.880;2022-09-09T01:18:55;1.83;;;0.63;;
1382;SDS011;685;47.196;11.880;2022-09-09T01:21:27;3.10;;;0.90;;
1382;SDS011;685;47.196;11.880;2022-09-09T01:24:18;2.50;;;1.20;;
1382;SDS011;685;47.196;11.880;2022-09-09T01:26:49;1.63;;;0.90;;
1382;SDS011;685;47.196;11.880;2022-09-09T01:29:19;1.83;;;0.80;;
1382;SDS011;685;47.196;11.880;2022-09-09T01:31:52;3.30;;;1.02;;
1382;SDS011;685;47.196;11.880;2022-09-09T01:34:21;1.60;;;1.00;;
1382;SDS011;685;47.196;11.880;2022-09-09T01:36:51;5.77;;;1.00;;
1382;SDS011;685;47.196;11.880;2022-09-09T01:39:22;4.25;;;1.10;;
1382;SDS011;685;47.196;11.880;2022-09-09T01:41:50;1.20;;;0.70;;
1382;SDS011;685;47.196;11.880;2022-09-09T01:44:18;1.52;;;0.88;;
1382;SDS011;685;47.196;11.880;2022-09-09T01:46:46;2.77;;;0.70;;
1382;SDS011;685;47.196;11.880;2022-09-09T01:49:13;1.10;;;0.50;;
1382;SDS011;685;47.196;11.880;2022-09-09T01:51:40;1.70;;;0.80;;
1382;SDS011;685;47.196;11.880;2022-09-09T01:54:09;1.60;;;0.80;;
1382;SDS011;685;47.196;11.880;2022-09-09T01:56:40;3.60;;;1.50;;
1382;SDS011;685;47.196;11.880;2022-09-09T01:59:18;2.57;;;1.10;;
1382;SDS011;685;47.196;11.880;2022-09-09T02:02:08;1.40;;;0.80;;
1382;SDS011;685;47.196;11.880;2022-09-09T02:04:38;1.40;;;1.03;;
1382;SDS011;685;47.196;11.880;2022-09-09T02:07:10;1.60;;;0.90;;
1382;SDS011;685;47.196;11.880;2022-09-09T02:09:56;1.13;;;0.63;;
1382;SDS011;685;47.196;11.880;2022-09-09T02:12:27;1.83;;;0.60;;
1382;SDS011;685;47.196;11.880;2022-09-09T02:14:59;2.83;;;1.33;;
1382;SDS011;685;47.196;11.880;2022-09-09T02:17:30;1.60;;;1.10;;
1382;SDS011;685;47.196;11.880;2022-09-09T02:20:02;1.47;;;0.70;;
1382;SDS011;685;47.196;11.880;2022-09-09T02:22:32;1.80;;;1.23;;
1382;SDS011;685;47.196;11.880;2022-09-09T02:25:02;1.30;;;0.60;;
1382;SDS011;685;47.196;11.880;2022-09-09T02:27:31;1.30;;;0.60;;
1382;SDS011;685;47.196;11.880;2022-09-09T02:30:00;1.37;;;0.67;;
1382;SDS011;685;47.196;11.880;2022-09-09T02:32:28;1.93;;;1.00;;
1382;SDS011;685;47.196;11.880;2022-09-09T02:35:00;2.23;;;1.17;;
1382;SDS011;685;47.196;11.880;2022-09-09T02:37:32;1.70;;;0.87;;
1382;SDS011;685;47.196;11.880;2022-09-09T02:40:03;1.77;;;1.37;;
1382;SDS011;685;47.196;11.880;2022-09-09T02:42:31;3.55;;;0.75;;
1382;SDS011;685;47.196;11.880;2022-09-09T02:45:06;1.85;;;0.90;;
1382;SDS011;685;47.196;11.880;2022-09-09T02:47:34;1.98;;;0.93;;
1382;SDS011;685;47.196;11.880;2022-09-09T02:50:06;3.00;;;0.77;;
1382;SDS011;685;47.196;11.880;2022-09-09T02:52:42;1.40;;;0.80;;
1382;SDS011;685;47.196;11.880;2022-09-09T02:55:17;2.30;;;0.97;;
1382;SDS011;685;47.196;11.880;2022-09-09T02:57:48;4.03;;;0.70;;
1382;SDS011;685;47.196;11.880;2022-09-09T03:00:23;2.07;;;1.10;;
1382;SDS011;685;47.196;11.880;2022-09-09T03:02:51;1.63;;;0.80;;
1382;SDS011;685;47.196;11.880;2022-09-09T03:05:19;2.60;;;0.90;;
1382;SDS011;685;47.196;11.880;2022-09-09T03:07:47;3.93;;;1.30;;
1382;SDS011;685;47.196;11.880;2022-09-09T03:10:15;1.53;;;1.00;;
1382;SDS011;685;47.196;11.880;2022-09-09T03:12:42;1.40;;;0.90;;
1382;SDS011;685;47.196;11.880;2022-09-09T03:15:09;4.43;;;0.97;;
1382;SDS011;685;47.196;11.880;2022-09-09T03:17:38;3.20;;;0.90;;
1382;SDS011;685;47.196;11.880;2022-09-09T03:20:05;2.07;;;0.80;;
1382;SDS011;685;47.196;11.880;2022-09-09T03:22:33;3.30;;;0.80;;
1382;SDS011;685;47.196;11.880;2022-09-09T03:25:00;1.20;;;0.90;;
1382;SDS011;685;47.196;11.880;2022-09-09T03:27:28;1.80;;;1.10;;
1382;SDS011;685;47.196;11.880;2022-09-09T03:29:55;2.90;;;1.10;;
1382;SDS011;685;47.196;11.880;2022-09-09T03:32:22;1.50;;;0.80;;
1382;SDS011;685;47.196;11.880;2022-09-09T03:34:52;1.50;;;0.80;;
1382;SDS011;685;47.196;11.880;2022-09-09T03:37:19;2.03;;;0.80;;
1382;SDS011;685;47.196;11.880;2022-09-09T03:39:47;2.20;;;0.90;;
1382;SDS011;685;47.196;11.880;2022-09-09T03:42:14;1.60;;;0.90;;
1382;SDS011;685;47.196;11.880;2022-09-09T03:44:43;1.50;;;1.17;;
1382;SDS011;685;47.196;11.880;2022-09-09T03:47:15;1.40;;;0.80;;
1382;SDS011;685;47.196;11.880;2022-09-09T03:49:44;1.17;;;0.73;;
1382;SDS011;685;47.196;11.880;2022-09-09T03:52:13;1.20;;;0.67;;
1382;SDS011;685;47.196;11.880;2022-09-09T03:54:40;2.87;;;0.80;;
1382;SDS011;685;47.196;11.880;2022-09-09T03:57:08;3.20;;;1.17;;
1382;SDS011;685;47.196;11.880;2022-09-09T03:59:35;2.40;;;0.90;;
1382;SDS011;685;47.196;11.880;2022-09-09T04:02:02;3.10;;;1.50;;
1382;SDS011;685;47.196;11.880;2022-09-09T04:04:30;1.50;;;1.00;;
1382;SDS011;685;47.196;11.880;2022-09-09T04:06:57;1.63;;;0.97;;
1382;SDS011;685;47.196;11.880;2022-09-09T04:09:25;3.90;;;1.13;;
1382;SDS011;685;47.196;11.880;2022-09-09T04:11:52;1.70;;;1.00;;
1382;SDS011;685;47.196;11.880;2022-09-09T04:14:20;3.07;;;1.00;;
1382;SDS011;685;47.196;11.880;2022-09-09T04:16:47;1.30;;;0.90;;
1382;SDS011;685;47.196;11.880;2022-09-09T04:19:14;1.60;;;1.10;;
1382;SDS011;685;47.196;11.880;2022-09-09T04:21:41;1.87;;;1.07;;
1382;SDS011;685;47.196;11.880;2022-09-09T04:24:08;1.53;;;1.07;;
1382;SDS011;685;47.196;11.880;2022-09-09T04:26:36;2.63;;;1.17;;
1382;SDS011;685;47.196;11.880;2022-09-09T04:29:04;1.63;;;0.87;;
1382;SDS011;685;47.196;11.880;2022-09-09T04:31:33;2.13;;;0.90;;
1382;SDS011;685;47.196;11.880;2022-09-09T04:34:00;1.53;;;1.10;;
1382;SDS011;685;47.196;11.880;2022-09-09T04:36:30;1.97;;;0.83;;
1382;SDS011;685;47.196;11.880;2022-09-09T04:38:58;1.27;;;0.97;;
1382;SDS011;685;47.196;11.880;2022-09-09T04:41:26;6.60;;;1.50;;
1382;SDS011;685;47.196;11.880;2022-09-09T04:43:54;1.70;;;1.00;;
1382;SDS011;685;47.196;11.880;2022-09-09T04:46:21;1.83;;;0.97;;
1382;SDS011;685;47.196;11.880;2022-09-09T04:48:49;2.40;;;0.83;;
1382;SDS011;685;47.196;11.880;2022-09-09T04:51:17;2.53;;;0.90;;
1382;SDS011;685;47.196;11.880;2022-09-09T04:53:44;2.43;;;1.10;;
1382;SDS011;685;47.196;11.880;2022-09-09T04:56:12;1.93;;;1.30;;
1382;SDS011;685;47.196;11.880;2022-09-09T04:58:40;2.63;;;1.10;;
1382;SDS011;685;47.196;11.880;2022-09-09T05:01:10;2.47;;;1.27;;
1382;SDS011;685;47.196;11.880;2022-09-09T05:03:38;1.90;;;0.90;;
1382;SDS011;685;47.196;11.880;2022-09-09T05:06:06;1.57;;;0.87;;
1382;SDS011;685;47.196;11.880;2022-09-09T05:08:34;1.77;;;1.20;;
1382;SDS011;685;47.196;11.880;2022-09-09T05:11:02;2.80;;;1.13;;
1382;SDS011;685;47.196;11.880;2022-09-09T05:13:29;2.57;;;1.77;;
1382;SDS011;685;47.196;11.880;2022-09-09T05:15:57;3.80;;;1.70;;
1382;SDS011;685;47.196;11.880;2022-09-09T05:18:26;3.90;;;1.60;;
1382;SDS011;685;47.196;11.880;2022-09-09T05:20:58;4.22;;;1.70;;
1382;SDS011;685;47.196;11.880;2022-09-09T05:23:25;3.47;;;1.70;;
1382;SDS011;685;47.196;11.880;2022-09-09T05:25:56;4.17;;;1.87;;
1382;SDS011;685;47.196;11.880;2022-09-09T05:28:23;2.58;;;1.65;;
1382;SDS011;685;47.196;11.880;2022-09-09T05:30:55;2.93;;;2.07;;
1382;SDS011;685;47.196;11.880;2022-09-09T05:33:23;3.90;;;1.85;;
1382;SDS011;685;47.196;11.880;2022-09-09T05:35:55;2.53;;;1.90;;
1382;SDS011;685;47.196;11.880;2022-09-09T05:38:23;2.07;;;1.30;;
1382;SDS011;685;47.196;11.880;2022-09-09T05:40:50;2.20;;;1.33;;
1382;SDS011;685;47.196;11.880;2022-09-09T05:43:18;2.90;;;1.53;;
1382;SDS011;685;47.196;11.880;2022-09-09T05:45:45;2.03;;;1.03;;
1382;SDS011;685;47.196;11.880;2022-09-09T05:48:12;1.33;;;0.88;;
1382;SDS011;685;47.196;11.880;2022-09-09T05:50:41;1.67;;;0.90;;
1382;SDS011;685;47.196;11.880;2022-09-09T05:53:10;2.40;;;1.37;;
1382;SDS011;685;47.196;11.880;2022-09-09T05:55:37;2.13;;;1.30;;
1382;SDS011;685;47.196;11.880;2022-09-09T05:58:04;2.13;;;1.07;;
1382;SDS011;685;47.196;11.880;2022-09-09T06:00:31;2.77;;;2.30;;
1382;SDS011;685;47.196;11.880;2022-09-09T06:02:58;2.70;;;1.80;;
1382;SDS011;685;47.196;11.880;2022-09-09T06:05:25;4.53;;;1.73;;
1382;SDS011;685;47.196;11.880;2022-09-09T06:07:54;2.60;;;1.80;;
1382;SDS011;685;47.196;11.880;2022-09-09T06:10:22;2.33;;;1.60;;
1382;SDS011;685;47.196;11.880;2022-09-09T06:12:52;2.80;;;1.60;;
1382;SDS011;685;47.196;11.880;2022-09-09T06:15:19;2.20;;;1.77;;
1382;SDS011;685;47.196;11.880;2022-09-09T06:17:46;2.53;;;1.50;;
1382;SDS011;685;47.196;11.880;2022-09-09T06:20:14;2.50;;;1.47;;
1382;SDS011;685;47.196;11.880;2022-09-09T06:22:41;2.47;;;1.80;;
1382;SDS011;685;47.196;11.880;2022-09-09T06:25:13;2.70;;;1.80;;
1382;SDS011;685;47.196;11.880;2022-09-09T06:27:40;2.90;;;1.27;;
1382;SDS011;685;47.196;11.880;2022-09-09T06:30:07;1.47;;;1.27;;
1382;SDS011;685;47.196;11.880;2022-09-09T06:32:36;2.17;;;1.40;;
1382;SDS011;685;47.196;11.880;2022-09-09T06:35:03;1.53;;;1.07;;
1382;SDS011;685;47.196;11.880;2022-09-09T06:37:30;2.03;;;1.33;;
1382;SDS011;685;47.196;11.880;2022-09-09T06:39:57;3.27;;;1.30;;
1382;SDS011;685;47.196;11.880;2022-09-09T06:42:26;4.90;;;2.27;;
1382;SDS011;685;47.196;11.880;2022-09-09T06:44:53;2.37;;;1.40;;
1382;SDS011;685;47.196;11.880;2022-09-09T06:47:20;2.80;;;2.20;;
1382;SDS011;685;47.196;11.880;2022-09-09T06:49:46;3.47;;;3.07;;
1382;SDS011;685;47.196;11.880;2022-09-09T06:52:13;2.77;;;1.90;;
1382;SDS011;685;47.196;11.880;2022-09-09T06:54:43;4.95;;;2.40;;
1382;SDS011;685;47.196;11.880;2022-09-09T06:57:10;2.67;;;2.47;;
1382;SDS011;685;47.196;11.880;2022-09-09T06:59:38;2.83;;;2.07;;
1382;SDS011;685;47.196;11.880;2022-09-09T07:02:06;2.43;;;2.03;;
1382;SDS011;685;47.196;11.880;2022-09-09T07:04:34;2.83;;;1.50;;
1382;SDS011;685;47.196;11.880;2022-09-09T07:07:02;1.55;;;1.25;;
1382;SDS011;685;47.196;11.880;2022-09-09T07:09:29;1.80;;;1.03;;
1382;SDS011;685;47.196;11.880;2022-09-09T07:11:56;1.80;;;1.20;;
1382;SDS011;685;47.196;11.880;2022-09-09T07:14:24;3.10;;;1.40;;
1382;SDS011;685;47.196;11.880;2022-09-09T07:16:53;2.03;;;1.43;;
1382;SDS011;685;47.196;11.880;2022-09-09T07:19:20;2.43;;;1.70;;
1382;SDS011;685;47.196;11.880;2022-09-09T07:21:47;6.33;;;1.90;;
1382;SDS011;685;47.196;11.880;2022-09-09T07:24:14;5.88;;;1.63;;
1382;SDS011;685;47.196;11.880;2022-09-09T07:26:41;3.33;;;2.00;;
1382;SDS011;685;47.196;11.880;2022-09-09T07:29:09;2.40;;;1.90;;
1382;SDS011;685;47.196;11.880;2022-09-09T07:31:39;1.80;;;1.37;;
1382;SDS011;685;47.196;11.880;2022-09-09T07:34:07;5.40;;;1.50;;
1382;SDS011;685;47.196;11.880;2022-09-09T07:36:35;2.67;;;2.03;;
1382;SDS011;685;47.196;11.880;2022-09-09T07:39:05;2.20;;;1.80;;
1382;SDS011;685;47.196;11.880;2022-09-09T07:41:35;3.38;;;1.60;;
1382;SDS011;685;47.196;11.880;2022-09-09T07:44:04;2.10;;;1.33;;
1382;SDS011;685;47.196;11.880;2022-09-09T07:46:32;2.93;;;1.90;;
1382;SDS011;685;47.196;11.880;2022-09-09T07:49:00;3.10;;;1.60;;
1382;SDS011;685;47.196;11.880;2022-09-09T07:51:30;3.10;;;1.63;;
1382;SDS011;685;47.196;11.880;2022-09-09T07:53:59;3.47;;;1.60;;
1382;SDS011;685;47.196;11.880;2022-09-09T07:56:28;1.87;;;1.63;;
1382;SDS011;685;47.196;11.880;2022-09-09T07:58:56;3.75;;;1.58;;
1382;SDS011;685;47.196;11.880;2022-09-09T08:01:25;3.00;;;1.57;;
1382;SDS011;685;47.196;11.880;2022-09-09T08:03:54;5.50;;;2.83;;
1382;SDS011;685;47.196;11.880;2022-09-09T08:06:23;3.40;;;1.60;;
1382;SDS011;685;47.196;11.880;2022-09-09T08:08:53;3.20;;;1.70;;
1382;SDS011;685;47.196;11.880;2022-09-09T08:11:20;3.63;;;1.93;;
1382;SDS011;685;47.196;11.880;2022-09-09T08:13:49;3.97;;;2.00;;
1382;SDS011;685;47.196;11.880;2022-09-09T08:16:18;1.87;;;1.47;;
1382;SDS011;685;47.196;11.880;2022-09-09T08:18:47;2.10;;;1.87;;
1382;SDS011;685;47.196;11.880;2022-09-09T08:21:15;2.17;;;1.60;;
1382;SDS011;685;47.196;11.880;2022-09-09T08:23:44;4.40;;;2.10;;
1382;SDS011;685;47.196;11.880;2022-09-09T08:26:14;3.05;;;1.80;;
1382;SDS011;685;47.196;11.880;2022-09-09T08:28:42;3.90;;;1.83;;
1382;SDS011;685;47.196;11.880;2022-09-09T08:31:11;3.40;;;1.57;;
1382;SDS011;685;47.196;11.880;2022-09-09T08:33:39;3.50;;;1.77;;
1382;SDS011;685;47.196;11.880;2022-09-09T08:36:08;2.50;;;1.85;;
1382;SDS011;685;47.196;11.880;2022-09-09T08:38:37;3.33;;;2.30;;
1382;SDS011;685;47.196;11.880;2022-09-09T08:41:07;4.97;;;2.60;;
1382;SDS011;685;47.196;11.880;2022-09-09T08:43:58;2.27;;;1.47;;
1382;SDS011;685;47.196;11.880;2022-09-09T08:46:30;4.90;;;3.80;;
1382;SDS011;685;47.196;11.880;2022-09-09T08:49:04;3.73;;;2.80;;
1382;SDS011;685;47.196;11.880;2022-09-09T08:51:37;2.58;;;1.63;;
1382;SDS011;685;47.196;11.880;2022-09-09T08:54:05;1.70;;;1.30;;
1382;SDS011;685;47.196;11.880;2022-09-09T08:56:33;5.57;;;1.83;;
1382;SDS011;685;47.196;11.880;2022-09-09T08:59:02;2.10;;;1.90;;
1382;SDS011;685;47.196;11.880;2022-09-09T09:01:35;3.07;;;1.67;;
1382;SDS011;685;47.196;11.880;2022-09-09T09:04:12;5.00;;;1.83;;
1382;SDS011;685;47.196;11.880;2022-09-09T09:06:50;3.67;;;1.83;;
1382;SDS011;685;47.196;11.880;2022-09-09T09:09:29;3.23;;;1.83;;
1382;SDS011;685;47.196;11.880;2022-09-09T09:12:06;4.07;;;2.67;;
1382;SDS011;685;47.196;11.880;2022-09-09T09:14:41;2.63;;;1.50;;
1382;SDS011;685;47.196;11.880;2022-09-09T09:17:11;2.70;;;2.00;;
1382;SDS011;685;47.196;11.880;2022-09-09T09:19:41;2.23;;;1.40;;
1382;SDS011;685;47.196;11.880;2022-09-09T09:22:10;6.87;;;1.83;;
1382;SDS011;685;47.196;11.880;2022-09-09T09:24:45;2.77;;;1.73;;
1382;SDS011;685;47.196;11.880;2022-09-09T09:27:21;2.07;;;1.47;;
1382;SDS011;685;47.196;11.880;2022-09-09T09:29:56;4.63;;;1.50;;
1382;SDS011;685;47.196;11.880;2022-09-09T09:32:26;1.83;;;1.40;;
1382;SDS011;685;47.196;11.880;2022-09-09T09:34:57;1.80;;;1.27;;
1382;SDS011;685;47.196;11.880;2022-09-09T09:37:27;2.63;;;1.50;;
1382;SDS011;685;47.196;11.880;2022-09-09T09:40:07;2.10;;;1.50;;
1382;SDS011;685;47.196;11.880;2022-09-09T09:42:36;4.50;;;1.50;;
1382;SDS011;685;47.196;11.880;2022-09-09T09:45:12;2.65;;;1.55;;
1382;SDS011;685;47.196;11.880;2022-09-09T09:47:43;2.40;;;1.30;;
1382;SDS011;685;47.196;11.880;2022-09-09T09:50:15;2.90;;;1.30;;
1382;SDS011;685;47.196;11.880;2022-09-09T09:52:51;1.73;;;1.63;;
1382;SDS011;685;47.196;11.880;2022-09-09T09:55:21;1.90;;;1.30;;
1382;SDS011;685;47.196;11.880;2022-09-09T09:57:50;2.47;;;1.90;;
1382;SDS011;685;47.196;11.880;2022-09-09T10:00:18;2.30;;;1.80;;
1382;SDS011;685;47.196;11.880;2022-09-09T10:02:47;1.80;;;1.30;;
1382;SDS011;685;47.196;11.880;2022-09-09T10:05:18;1.97;;;1.43;;
1382;SDS011;685;47.196;11.880;2022-09-09T10:07:47;2.27;;;1.40;;
1382;SDS011;685;47.196;11.880;2022-09-09T10:10:30;2.35;;;1.30;;
1382;SDS011;685;47.196;11.880;2022-09-09T10:13:11;1.67;;;0.90;;
1382;SDS011;685;47.196;11.880;2022-09-09T10:15:47;1.43;;;0.90;;
1382;SDS011;685;47.196;11.880;2022-09-09T10:18:25;2.70;;;1.40;;
1382;SDS011;685;47.196;11.880;2022-09-09T10:21:03;2.20;;;0.90;;
1382;SDS011;685;47.196;11.880;2022-09-09T10:23:45;3.50;;;0.97;;
1382;SDS011;685;47.196;11.880;2022-09-09T10:26:27;1.60;;;0.90;;
1382;SDS011;685;47.196;11.880;2022-09-09T10:29:10;2.83;;;1.10;;
1382;SDS011;685;47.196;11.880;2022-09-09T10:31:54;1.63;;;1.03;;
1382;SDS011;685;47.196;11.880;2022-09-09T10:34:34;2.17;;;0.80;;
1382;SDS011;685;47.196;11.880;2022-09-09T10:37:16;2.30;;;0.90;;
1382;SDS011;685;47.196;11.880;2022-09-09T10:39:56;3.13;;;1.02;;
1382;SDS011;685;47.196;11.880;2022-09-09T10:42:34;1.50;;;0.90;;
1382;SDS011;685;47.196;11.880;2022-09-09T10:45:06;1.67;;;0.80;;
1382;SDS011;685;47.196;11.880;2022-09-09T10:47:46;1.30;;;0.80;;
1382;SDS011;685;47.196;11.880;2022-09-09T10:50:40;3.33;;;0.80;;
1382;SDS011;685;47.196;11.880;2022-09-09T10:53:17;2.50;;;1.00;;
1382;SDS011;685;47.196;11.880;2022-09-09T10:55:50;1.30;;;0.90;;
1382;SDS011;685;47.196;11.880;2022-09-09T10:58:22;1.63;;;0.80;;
1382;SDS011;685;47.196;11.880;2022-09-09T11:00:55;1.50;;;0.90;;
1382;SDS011;685;47.196;11.880;2022-09-09T11:03:27;1.60;;;1.10;;
1382;SDS011;685;47.196;11.880;2022-09-09T11:05:56;1.80;;;0.90;;
1382;SDS011;685;47.196;11.880;2022-09-09T11:08:28;1.80;;;0.77;;
1382;SDS011;685;47.196;11.880;2022-09-09T11:10:57;1.63;;;1.00;;
1382;SDS011;685;47.196;11.880;2022-09-09T11:13:30;1.40;;;0.73;;
1382;SDS011;685;47.196;11.880;2022-09-09T11:16:12;2.50;;;1.00;;
1382;SDS011;685;47.196;11.880;2022-09-09T11:18:45;3.67;;;1.10;;
1382;SDS011;685;47.196;11.880;2022-09-09T11:21:15;2.10;;;1.00;;
1382;SDS011;685;47.196;11.880;2022-09-09T11:23:48;1.67;;;0.97;;
1382;SDS011;685;47.196;11.880;2022-09-09T11:26:21;1.50;;;1.00;;
1382;SDS011;685;47.196;11.880;2022-09-09T11:29:00;1.70;;;1.10;;
1382;SDS011;685;47.196;11.880;2022-09-09T11:31:53;1.40;;;0.95;;
1382;SDS011;685;47.196;11.880;2022-09-09T11:34:35;1.83;;;1.00;;
1382;SDS011;685;47.196;11.880;2022-09-09T11:40:15;2.10;;;1.10;;
1382;SDS011;685;47.196;11.880;2022-09-09T11:42:44;1.50;;;0.90;;
1382;SDS011;685;47.196;11.880;2022-09-09T11:45:19;1.40;;;1.00;;
1382;SDS011;685;47.196;11.880;2022-09-09T11:47:52;1.60;;;0.90;;
1382;SDS011;685;47.196;11.880;2022-09-09T11:50:28;1.73;;;1.00;;
1382;SDS011;685;47.196;11.880;2022-09-09T11:53:18;3.30;;;1.43;;
1382;SDS011;685;47.196;11.880;2022-09-09T11:55:48;1.70;;;1.13;;
1382;SDS011;685;47.196;11.880;2022-09-09T11:58:27;2.70;;;1.40;;
1382;SDS011;685;47.196;11.880;2022-09-09T12:00:58;2.30;;;1.57;;
1382;SDS011;685;47.196;11.880;2022-09-09T12:03:34;1.80;;;1.20;;
1382;SDS011;685;47.196;11.880;2022-09-09T12:06:09;2.60;;;1.70;;
1382;SDS011;685;47.196;11.880;2022-09-09T12:08:40;1.90;;;1.40;;
1382;SDS011;685;47.196;11.880;2022-09-09T12:11:09;4.90;;;1.70;;
1382;SDS011;685;47.196;11.880;2022-09-09T12:13:37;2.07;;;1.30;;
1382;SDS011;685;47.196;11.880;2022-09-09T12:16:04;1.40;;;1.00;;
1382;SDS011;685;47.196;11.880;2022-09-09T12:18:32;1.80;;;1.50;;
1382;SDS011;685;47.196;11.880;2022-09-09T12:21:05;1.52;;;1.35;;
1382;SDS011;685;47.196;11.880;2022-09-09T12:23:40;2.35;;;1.27;;
1382;SDS011;685;47.196;11.880;2022-09-09T12:26:20;2.00;;;1.20;;
1382;SDS011;685;47.196;11.880;2022-09-09T12:31:51;2.47;;;1.60;;
1382;SDS011;685;47.196;11.880;2022-09-09T12:34:31;1.70;;;1.50;;
1382;SDS011;685;47.196;11.880;2022-09-09T12:37:04;3.27;;;1.80;;
1382;SDS011;685;47.196;11.880;2022-09-09T12:39:35;3.03;;;1.37;;
1382;SDS011;685;47.196;11.880;2022-09-09T12:42:15;1.60;;;1.50;;
1382;SDS011;685;47.196;11.880;2022-09-09T12:44:50;2.20;;;2.00;;
1382;SDS011;685;47.196;11.880;2022-09-09T12:47:18;1.88;;;1.58;;
1382;SDS011;685;47.196;11.880;2022-09-09T12:49:49;2.50;;;1.97;;
1382;SDS011;685;47.196;11.880;2022-09-09T12:52:18;2.80;;;1.80;;
1382;SDS011;685;47.196;11.880;2022-09-09T12:54:51;4.90;;;2.50;;
1382;SDS011;685;47.196;11.880;2022-09-09T12:57:21;4.40;;;2.47;;
1382;SDS011;685;47.196;11.880;2022-09-09T12:59:51;2.37;;;1.80;;
1382;SDS011;685;47.196;11.880;2022-09-09T13:02:20;2.33;;;1.87;;
1382;SDS011;685;47.196;11.880;2022-09-09T13:04:49;3.83;;;2.00;;
1382;SDS011;685;47.196;11.880;2022-09-09T13:07:17;2.23;;;1.83;;
1382;SDS011;685;47.196;11.880;2022-09-09T13:09:45;2.72;;;1.98;;
1382;SDS011;685;47.196;11.880;2022-09-09T13:12:14;3.53;;;1.77;;
1382;SDS011;685;47.196;11.880;2022-09-09T13:14:44;2.75;;;2.28;;
1382;SDS011;685;47.196;11.880;2022-09-09T13:17:17;2.57;;;2.07;;
1382;SDS011;685;47.196;11.880;2022-09-09T13:19:47;3.00;;;1.60;;
1382;SDS011;685;47.196;11.880;2022-09-09T13:22:20;2.13;;;1.73;;
1382;SDS011;685;47.196;11.880;2022-09-09T13:24:58;2.10;;;1.37;;
1382;SDS011;685;47.196;11.880;2022-09-09T13:27:29;2.60;;;2.10;;
1382;SDS011;685;47.196;11.880;2022-09-09T13:29:58;3.22;;;2.55;;
1382;SDS011;685;47.196;11.880;2022-09-09T13:32:27;1.77;;;1.47;;
1382;SDS011;685;47.196;11.880;2022-09-09T13:34:58;2.67;;;1.50;;
1382;SDS011;685;47.196;11.880;2022-09-09T13:37:27;2.53;;;2.00;;
1382;SDS011;685;47.196;11.880;2022-09-09T13:39:58;2.35;;;1.60;;
1382;SDS011;685;47.196;11.880;2022-09-09T13:42:26;3.07;;;1.77;;
1382;SDS011;685;47.196;11.880;2022-09-09T13:44:55;2.30;;;1.87;;
1382;SDS011;685;47.196;11.880;2022-09-09T13:47:27;2.38;;;1.60;;
1382;SDS011;685;47.196;11.880;2022-09-09T13:49:57;3.08;;;1.15;;
1382;SDS011;685;47.196;11.880;2022-09-09T13:52:25;1.63;;;1.27;;
1382;SDS011;685;47.196;11.880;2022-09-09T13:54:56;2.37;;;1.77;;
1382;SDS011;685;47.196;11.880;2022-09-09T13:57:24;2.13;;;1.70;;
1382;SDS011;685;47.196;11.880;2022-09-09T13:59:52;1.70;;;1.53;;
1382;SDS011;685;47.196;11.880;2022-09-09T14:02:21;2.37;;;1.77;;
1382;SDS011;685;47.196;11.880;2022-09-09T14:04:49;3.43;;;2.00;;
1382;SDS011;685;47.196;11.880;2022-09-09T14:07:21;3.47;;;2.35;;
1382;SDS011;685;47.196;11.880;2022-09-09T14:09:48;1.70;;;1.57;;
1382;SDS011;685;47.196;11.880;2022-09-09T14:12:16;2.25;;;2.05;;
1382;SDS011;685;47.196;11.880;2022-09-09T14:14:43;3.20;;;2.00;;
1382;SDS011;685;47.196;11.880;2022-09-09T14:17:11;2.90;;;2.17;;
1382;SDS011;685;47.196;11.880;2022-09-09T14:19:38;2.83;;;2.20;;
1382;SDS011;685;47.196;11.880;2022-09-09T14:22:05;2.60;;;2.03;;
1382;SDS011;685;47.196;11.880;2022-09-09T14:24:34;3.93;;;2.30;;
1382;SDS011;685;47.196;11.880;2022-09-09T14:27:01;3.37;;;2.60;;
1382;SDS011;685;47.196;11.880;2022-09-09T14:29:28;3.43;;;2.57;;
1382;SDS011;685;47.196;11.880;2022-09-09T14:31:55;2.10;;;1.87;;
1382;SDS011;685;47.196;11.880;2022-09-09T14:34:22;3.70;;;2.90;;
1382;SDS011;685;47.196;11.880;2022-09-09T14:36:48;4.20;;;3.30;;
1382;SDS011;685;47.196;11.880;2022-09-09T14:39:16;3.90;;;3.00;;
1382;SDS011;685;47.196;11.880;2022-09-09T14:41:44;3.13;;;2.92;;
1382;SDS011;685;47.196;11.880;2022-09-09T14:44:11;4.60;;;2.93;;
1382;SDS011;685;47.196;11.880;2022-09-09T14:46:38;4.30;;;3.90;;
1382;SDS011;685;47.196;11.880;2022-09-09T14:49:07;4.68;;;3.00;;
1382;SDS011;685;47.196;11.880;2022-09-09T14:51:35;3.27;;;2.60;;
1382;SDS011;685;47.196;11.880;2022-09-09T14:54:02;2.20;;;2.00;;
1382;SDS011;685;47.196;11.880;2022-09-09T14:56:30;2.63;;;1.90;;
1382;SDS011;685;47.196;11.880;2022-09-09T14:59:00;2.97;;;2.13;;
1382;SDS011;685;47.196;11.880;2022-09-09T15:01:28;2.77;;;2.00;;
1382;SDS011;685;47.196;11.880;2022-09-09T15:03:57;2.93;;;2.63;;
1382;SDS011;685;47.196;11.880;2022-09-09T15:06:27;3.63;;;2.53;;
1382;SDS011;685;47.196;11.880;2022-09-09T15:08:56;5.70;;;2.60;;
1382;SDS011;685;47.196;11.880;2022-09-09T15:11:25;2.27;;;2.07;;
1382;SDS011;685;47.196;11.880;2022-09-09T15:13:53;2.30;;;2.10;;
1382;SDS011;685;47.196;11.880;2022-09-09T15:16:23;2.43;;;2.20;;
1382;SDS011;685;47.196;11.880;2022-09-09T15:18:51;3.67;;;2.70;;
1382;SDS011;685;47.196;11.880;2022-09-09T15:21:20;5.23;;;4.83;;
1382;SDS011;685;47.196;11.880;2022-09-09T15:23:48;4.23;;;3.93;;
1382;SDS011;685;47.196;11.880;2022-09-09T15:26:16;3.27;;;2.97;;
1382;SDS011;685;47.196;11.880;2022-09-09T15:28:43;2.67;;;2.47;;
1382;SDS011;685;47.196;11.880;2022-09-09T15:31:12;2.80;;;2.10;;
1382;SDS011;685;47.196;11.880;2022-09-09T15:33:47;4.37;;;1.97;;
1382;SDS011;685;47.196;11.880;2022-09-09T15:36:16;2.55;;;2.00;;
1382;SDS011;685;47.196;11.880;2022-09-09T15:38:44;3.30;;;2.07;;
1382;SDS011;685;47.196;11.880;2022-09-09T15:41:12;3.27;;;2.60;;
1382;SDS011;685;47.196;11.880;2022-09-09T15:43:42;3.50;;;2.43;;
1382;SDS011;685;47.196;11.880;2022-09-09T15:46:27;3.27;;;2.87;;
1382;SDS011;685;47.196;11.880;2022-09-09T15:48:57;2.83;;;2.43;;